Airfield :
LOGIN :

Register | Disclaimer

   EN    FR    IT 

 










Legend :    VFR   Marginal VFR   IFR   Intensive IFR   Very Intensive IFR
Visi :
Ceiling :
>= 8 km
>= 3000ft
5 to 8 km
1000 to 3000 ft
1500m to 5 km
500 to 1000 ft
800 to 1500m
200 to 500 ft
< 800m
< 200 ft
Symbols :   Thunderstorms  Fog  Heavy snow  Heavy precipitations  Wind > 20 kt
SIGMETs :     Misc.  Thunderstorms  Icing  Turbulence  Mountain Waves  Volcanic Ashes






- Airport Elevation : 132 ft


EGXE - RAF Leeming

CURRENT METAR :
  • 281250Z 14021G32KT 9999 -RASN OVC007 03/02 Q0996 TEMPO 5000 RASN BKN005 RMK GRN TEMPO YLO1

EXPIRED METARs :
  • 281221Z 14019G29KT 9999 -RA OVC007 03/02 Q0997 TEMPO 4000 RASN BKN005 RMK GRN TEMPO YLO1
  • 281150Z 14018G29KT 9999 -RASN BKN007 OVC020 03/02 Q0999 TEMPO 4000 RASN BKN006 RMK GRN TEMPO YLO1
  • 281120Z 14015G26KT 9999 -RASN SCT009 OVC020 03/02 Q1000 TEMPO 4000 RASN BKN006 RMK GRN TEMPO YLO1
  • 281050Z 14013KT 9999 -RASN SCT010 OVC030 03/01 Q1001 TEMPO 4000 RASN RMK GRN TEMPO GRN

TAF AMD TAF EGXE
Valid from the 28 at 12:00 until the 28 at 19:00 UTC


281155Z 2812/2819 16014KT 9999 -RA BKN008
TEMPO 2812/2819 4000 RA BKN005
TEMPO 2812/2815 16016G26KT
PROB30
TEMPO 2812/2814 2000 RASN BKN003
PROB40
TEMPO 2814/2819 2000 RADZ BKN004
PROB30
TEMPO 2816/2819 BKN002



MET'MAP, your aeronautical weather chart ! - Copyright ORBIFLY December 2007 - Disclaimer

ORBIFLY MET'MAP TEAM :

Programming & Development : Alexandra Zaïnal
Concept & original design : Baudouin d'Aumeries
Assistance for programming : Marc-Olivier Méhu
Technical & hardware support : Manuel Goepfert

Contact : metmap@orbifly.com




SOURCES & CREDITS :

   NOAA